Terminal Aerodrome Forecast
Issued by NWS Hastings, NE

Home | Current Version | Previous Version | Text Only | Print | Product List | Glossary On
Versions: 1 2 3 4 5 6 7 8 9 10 11 12 13 14 15 16
656
FTUS45 KGID 230524
TAFEAR
TAF
KEAR 230524Z 2306/2406 VRB04KT P6SM SKC
     FM231100 VRB04KT P6SM SCT015 SCT150
     FM231600 15011KT P6SM SCT150
     FM231800 17013G18KT P6SM SCT200
     FM240000 13011KT P6SM SCT090
      AMD LTD TO CLD VIS AND WIND=

USA.gov is the U.S. government's official web portal to all federal, state and local government web resources and services.